Main page
METAR-TAF:

METAR-TAF

Airports :

Carlisle, England

Carlisle Lake District Airport

latitude: 54-56-15N, longitude: 002-48-33W, elevation: 57 m

Current weather observation

The report was made 4 hours and 16 minutes ago, at 17:50 UTC
Wind 5 kt from the West
Temperature 10°C
Humidity 87%
Pressure 1017 hPa
Visibility 10 km or more
Scattered clouds at a height of 2000 ft

METAR: EGNC 191750Z 27005KT 9999 SCT020 10/08 Q1017

Time: 22:06 (22:06 UTC)

Forecast

The report was made 7 hours and 58 minutes ago, at 14:08 UTC
Forecast valid from 19 at 15 UTC to 19 at 18 UTC
Wind 5 kt from the West
Visibility 10 km or more
Scattered clouds at a height of 1600 ft
Temporary
from 19 at 15 UTC to 19 at 18 UTC
Visibility: 8000 m
Broken clouds at a height of 1200 ft
light rain

TAF: EGNC 191408Z 1915/1918 26005KT 9999 SCT016 TEMPO 1915/1918 8000 -RA BKN012

Weather observations and forecasts of more than 4000 airports (METAR and TAF reports).

The available stations are represented by yellow and red dots on the map.

Hover mouse over dot to see the name of the station.

Then click to see weather observations and forecasts.

To change the map : click on the green buttons with a black cross to zoom in, on the green button with a dash to zoom out, or on the green arrows for adjacent maps.


METAR-TAF: